sensor_id;sensor_type;location;lat;lon;timestamp;temperature;humidity
20492;DHT22;10404;51.468;6.762;2023-04-12T00:02:11;12.20;51.20
20492;DHT22;10404;51.468;6.762;2023-04-12T00:04:37;12.20;51.40
20492;DHT22;10404;51.468;6.762;2023-04-12T00:07:02;12.20;51.30
20492;DHT22;10404;51.468;6.762;2023-04-12T00:09:30;12.10;51.40
20492;DHT22;10404;51.468;6.762;2023-04-12T00:11:57;12.10;51.40
20492;DHT22;10404;51.468;6.762;2023-04-12T00:14:24;12.10;51.50
20492;DHT22;10404;51.468;6.762;2023-04-12T00:16:50;12.10;51.60
20492;DHT22;10404;51.468;6.762;2023-04-12T00:19:15;12.00;51.70
20492;DHT22;10404;51.468;6.762;2023-04-12T00:21:42;12.00;51.90
20492;DHT22;10404;51.468;6.762;2023-04-12T00:24:08;12.00;52.10
20492;DHT22;10404;51.468;6.762;2023-04-12T00:26:33;12.00;52.20
20492;DHT22;10404;51.468;6.762;2023-04-12T00:28:59;12.00;52.50
20492;DHT22;10404;51.468;6.762;2023-04-12T00:31:25;11.90;52.50
20492;DHT22;10404;51.468;6.762;2023-04-12T00:33:50;11.90;52.70
20492;DHT22;10404;51.468;6.762;2023-04-12T00:36:16;11.90;52.70
20492;DHT22;10404;51.468;6.762;2023-04-12T00:38:42;11.90;52.80
20492;DHT22;10404;51.468;6.762;2023-04-12T00:41:10;11.90;53.00
20492;DHT22;10404;51.468;6.762;2023-04-12T00:43:35;11.90;53.20
20492;DHT22;10404;51.468;6.762;2023-04-12T00:46:01;11.80;53.30
20492;DHT22;10404;51.468;6.762;2023-04-12T00:48:27;11.80;53.40
20492;DHT22;10404;51.468;6.762;2023-04-12T00:50:53;11.70;53.60
20492;DHT22;10404;51.468;6.762;2023-04-12T00:53:22;11.70;53.60
20492;DHT22;10404;51.468;6.762;2023-04-12T00:55:48;11.70;53.70
20492;DHT22;10404;51.468;6.762;2023-04-12T00:58:15;11.70;53.90
20492;DHT22;10404;51.468;6.762;2023-04-12T01:00:42;11.70;53.90
20492;DHT22;10404;51.468;6.762;2023-04-12T01:03:17;11.70;54.00
20492;DHT22;10404;51.468;6.762;2023-04-12T01:06:12;11.60;54.10
20492;DHT22;10404;51.468;6.762;2023-04-12T01:19:28;11.50;54.70
20492;DHT22;10404;51.468;6.762;2023-04-12T01:22:30;11.50;54.90
20492;DHT22;10404;51.468;6.762;2023-04-12T01:27:47;11.40;55.00
20492;DHT22;10404;51.468;6.762;2023-04-12T01:30:16;11.40;55.10
20492;DHT22;10404;51.468;6.762;2023-04-12T01:32:48;11.40;55.10
20492;DHT22;10404;51.468;6.762;2023-04-12T01:35:18;11.30;55.20
20492;DHT22;10404;51.468;6.762;2023-04-12T01:37:45;11.30;55.20
20492;DHT22;10404;51.468;6.762;2023-04-12T01:40:11;11.30;55.60
20492;DHT22;10404;51.468;6.762;2023-04-12T01:42:37;11.20;55.50
20492;DHT22;10404;51.468;6.762;2023-04-12T01:45:04;11.20;55.70
20492;DHT22;10404;51.468;6.762;2023-04-12T01:47:31;11.20;55.80
20492;DHT22;10404;51.468;6.762;2023-04-12T01:52:48;11.10;56.00
20492;DHT22;10404;51.468;6.762;2023-04-12T01:55:14;11.10;56.10
20492;DHT22;10404;51.468;6.762;2023-04-12T01:57:43;11.10;56.30
20492;DHT22;10404;51.468;6.762;2023-04-12T02:00:10;11.10;56.50
20492;DHT22;10404;51.468;6.762;2023-04-12T02:02:36;11.00;56.50
20492;DHT22;10404;51.468;6.762;2023-04-12T02:05:05;11.00;56.70
20492;DHT22;10404;51.468;6.762;2023-04-12T02:07:33;11.00;57.00
20492;DHT22;10404;51.468;6.762;2023-04-12T02:09:59;11.00;57.20
20492;DHT22;10404;51.468;6.762;2023-04-12T02:12:24;11.00;57.10
20492;DHT22;10404;51.468;6.762;2023-04-12T02:14:50;10.90;57.20
20492;DHT22;10404;51.468;6.762;2023-04-12T02:17:17;10.90;57.20
20492;DHT22;10404;51.468;6.762;2023-04-12T02:19:42;10.90;57.20
20492;DHT22;10404;51.468;6.762;2023-04-12T02:22:08;10.90;57.40
20492;DHT22;10404;51.468;6.762;2023-04-12T02:24:33;10.90;57.80
20492;DHT22;10404;51.468;6.762;2023-04-12T02:26:59;10.80;57.60
20492;DHT22;10404;51.468;6.762;2023-04-12T02:29:25;10.80;58.00
20492;DHT22;10404;51.468;6.762;2023-04-12T02:31:51;10.80;57.90
20492;DHT22;10404;51.468;6.762;2023-04-12T02:34:17;10.70;58.10
20492;DHT22;10404;51.468;6.762;2023-04-12T02:36:51;10.70;58.40
20492;DHT22;10404;51.468;6.762;2023-04-12T02:39:17;10.70;58.60
20492;DHT22;10404;51.468;6.762;2023-04-12T02:41:43;10.70;58.70
20492;DHT22;10404;51.468;6.762;2023-04-12T02:44:09;10.60;58.70
20492;DHT22;10404;51.468;6.762;2023-04-12T02:46:35;10.60;58.80
20492;DHT22;10404;51.468;6.762;2023-04-12T02:49:00;10.60;58.80
20492;DHT22;10404;51.468;6.762;2023-04-12T02:51:26;10.50;58.80
20492;DHT22;10404;51.468;6.762;2023-04-12T02:53:52;10.50;59.00
20492;DHT22;10404;51.468;6.762;2023-04-12T02:56:18;10.50;59.10
20492;DHT22;10404;51.468;6.762;2023-04-12T02:58:43;10.50;59.00
20492;DHT22;10404;51.468;6.762;2023-04-12T03:01:10;10.50;59.00
20492;DHT22;10404;51.468;6.762;2023-04-12T03:03:37;10.50;59.20
20492;DHT22;10404;51.468;6.762;2023-04-12T03:06:03;10.40;59.30
20492;DHT22;10404;51.468;6.762;2023-04-12T03:08:29;10.40;59.50
20492;DHT22;10404;51.468;6.762;2023-04-12T03:10:56;10.40;59.40
20492;DHT22;10404;51.468;6.762;2023-04-12T03:13:21;10.40;59.50
20492;DHT22;10404;51.468;6.762;2023-04-12T03:15:47;10.30;59.70
20492;DHT22;10404;51.468;6.762;2023-04-12T03:18:14;10.30;59.60
20492;DHT22;10404;51.468;6.762;2023-04-12T03:20:40;10.30;59.60
20492;DHT22;10404;51.468;6.762;2023-04-12T03:23:08;10.30;59.60
20492;DHT22;10404;51.468;6.762;2023-04-12T03:25:34;10.30;59.80
20492;DHT22;10404;51.468;6.762;2023-04-12T03:28:01;10.20;59.80
20492;DHT22;10404;51.468;6.762;2023-04-12T03:30:27;10.30;60.00
20492;DHT22;10404;51.468;6.762;2023-04-12T03:32:53;10.20;60.00
20492;DHT22;10404;51.468;6.762;2023-04-12T03:35:18;10.20;60.30
20492;DHT22;10404;51.468;6.762;2023-04-12T03:37:44;10.20;60.50
20492;DHT22;10404;51.468;6.762;2023-04-12T03:40:09;10.20;60.40
20492;DHT22;10404;51.468;6.762;2023-04-12T03:42:36;10.10;60.40
20492;DHT22;10404;51.468;6.762;2023-04-12T03:45:02;10.10;60.50
20492;DHT22;10404;51.468;6.762;2023-04-12T03:47:27;10.10;60.50
20492;DHT22;10404;51.468;6.762;2023-04-12T03:50:05;10.00;60.60
20492;DHT22;10404;51.468;6.762;2023-04-12T03:52:31;10.00;60.70
20492;DHT22;10404;51.468;6.762;2023-04-12T03:54:57;10.00;60.70
20492;DHT22;10404;51.468;6.762;2023-04-12T03:57:22;10.00;60.90
20492;DHT22;10404;51.468;6.762;2023-04-12T03:59:48;10.00;61.00
20492;DHT22;10404;51.468;6.762;2023-04-12T04:02:14;10.00;61.10
20492;DHT22;10404;51.468;6.762;2023-04-12T04:04:40;10.00;60.90
20492;DHT22;10404;51.468;6.762;2023-04-12T04:07:05;10.00;61.10
20492;DHT22;10404;51.468;6.762;2023-04-12T04:09:32;10.00;61.10
20492;DHT22;10404;51.468;6.762;2023-04-12T04:11:58;9.90;61.40
20492;DHT22;10404;51.468;6.762;2023-04-12T04:14:23;9.90;61.30
20492;DHT22;10404;51.468;6.762;2023-04-12T04:16:49;9.90;61.20
20492;DHT22;10404;51.468;6.762;2023-04-12T04:19:14;9.80;61.40
20492;DHT22;10404;51.468;6.762;2023-04-12T04:21:40;9.80;61.60
20492;DHT22;10404;51.468;6.762;2023-04-12T04:24:08;9.80;61.60
20492;DHT22;10404;51.468;6.762;2023-04-12T04:26:36;9.80;61.60
20492;DHT22;10404;51.468;6.762;2023-04-12T04:29:02;9.80;61.70
20492;DHT22;10404;51.468;6.762;2023-04-12T04:31:29;9.80;61.60
20492;DHT22;10404;51.468;6.762;2023-04-12T04:34:05;9.80;61.80
20492;DHT22;10404;51.468;6.762;2023-04-12T04:36:36;9.70;61.70
20492;DHT22;10404;51.468;6.762;2023-04-12T04:39:02;9.70;61.60
20492;DHT22;10404;51.468;6.762;2023-04-12T04:41:30;9.70;61.70
20492;DHT22;10404;51.468;6.762;2023-04-12T04:43:59;9.70;61.70
20492;DHT22;10404;51.468;6.762;2023-04-12T04:46:25;9.70;61.60
20492;DHT22;10404;51.468;6.762;2023-04-12T04:48:54;9.70;61.90
20492;DHT22;10404;51.468;6.762;2023-04-12T04:51:20;9.60;62.00
20492;DHT22;10404;51.468;6.762;2023-04-12T04:53:45;9.60;61.80
20492;DHT22;10404;51.468;6.762;2023-04-12T04:56:11;9.60;61.90
20492;DHT22;10404;51.468;6.762;2023-04-12T04:58:37;9.60;62.10
20492;DHT22;10404;51.468;6.762;2023-04-12T05:01:02;9.60;62.10
20492;DHT22;10404;51.468;6.762;2023-04-12T05:03:29;9.60;62.00
20492;DHT22;10404;51.468;6.762;2023-04-12T05:05:55;9.60;62.10
20492;DHT22;10404;51.468;6.762;2023-04-12T05:08:21;9.60;62.10
20492;DHT22;10404;51.468;6.762;2023-04-12T05:10:51;9.50;62.10
20492;DHT22;10404;51.468;6.762;2023-04-12T05:13:17;9.50;62.10
20492;DHT22;10404;51.468;6.762;2023-04-12T05:15:43;9.50;62.10
20492;DHT22;10404;51.468;6.762;2023-04-12T05:18:09;9.50;62.20
20492;DHT22;10404;51.468;6.762;2023-04-12T05:20:37;9.50;62.40
20492;DHT22;10404;51.468;6.762;2023-04-12T05:23:03;9.40;62.70
20492;DHT22;10404;51.468;6.762;2023-04-12T05:25:28;9.40;62.70
20492;DHT22;10404;51.468;6.762;2023-04-12T05:27:54;9.40;62.70
20492;DHT22;10404;51.468;6.762;2023-04-12T05:30:20;9.40;62.90
20492;DHT22;10404;51.468;6.762;2023-04-12T05:32:45;9.40;62.90
20492;DHT22;10404;51.468;6.762;2023-04-12T05:35:11;9.40;62.90
20492;DHT22;10404;51.468;6.762;2023-04-12T05:37:36;9.40;62.90
20492;DHT22;10404;51.468;6.762;2023-04-12T05:40:02;9.40;63.20
20492;DHT22;10404;51.468;6.762;2023-04-12T05:42:30;9.40;63.40
20492;DHT22;10404;51.468;6.762;2023-04-12T05:44:56;9.40;63.60
20492;DHT22;10404;51.468;6.762;2023-04-12T05:47:22;9.30;63.60
20492;DHT22;10404;51.468;6.762;2023-04-12T05:49:47;9.30;63.50
20492;DHT22;10404;51.468;6.762;2023-04-12T05:52:13;9.30;63.50
20492;DHT22;10404;51.468;6.762;2023-04-12T05:54:38;9.30;63.60
20492;DHT22;10404;51.468;6.762;2023-04-12T05:57:04;9.30;63.70
20492;DHT22;10404;51.468;6.762;2023-04-12T05:59:29;9.20;63.80
20492;DHT22;10404;51.468;6.762;2023-04-12T06:01:55;9.20;64.00
20492;DHT22;10404;51.468;6.762;2023-04-12T06:04:21;9.20;64.00
20492;DHT22;10404;51.468;6.762;2023-04-12T06:06:46;9.20;64.10
20492;DHT22;10404;51.468;6.762;2023-04-12T06:09:12;9.20;64.40
20492;DHT22;10404;51.468;6.762;2023-04-12T06:11:39;9.20;64.30
20492;DHT22;10404;51.468;6.762;2023-04-12T06:14:05;9.20;64.20
20492;DHT22;10404;51.468;6.762;2023-04-12T06:16:31;9.20;64.20
20492;DHT22;10404;51.468;6.762;2023-04-12T06:18:56;9.20;64.50
20492;DHT22;10404;51.468;6.762;2023-04-12T06:21:22;9.20;64.60
20492;DHT22;10404;51.468;6.762;2023-04-12T06:23:48;9.20;64.70
20492;DHT22;10404;51.468;6.762;2023-04-12T06:26:14;9.20;64.80
20492;DHT22;10404;51.468;6.762;2023-04-12T06:28:40;9.20;64.80
20492;DHT22;10404;51.468;6.762;2023-04-12T06:31:05;9.20;64.90
20492;DHT22;10404;51.468;6.762;2023-04-12T06:33:31;9.10;65.00
20492;DHT22;10404;51.468;6.762;2023-04-12T06:35:57;9.20;65.00
20492;DHT22;10404;51.468;6.762;2023-04-12T06:38:22;9.10;65.00
20492;DHT22;10404;51.468;6.762;2023-04-12T06:40:48;9.10;65.50
20492;DHT22;10404;51.468;6.762;2023-04-12T06:43:17;9.10;65.50
20492;DHT22;10404;51.468;6.762;2023-04-12T06:45:47;9.00;65.50
20492;DHT22;10404;51.468;6.762;2023-04-12T06:48:14;9.10;65.40
20492;DHT22;10404;51.468;6.762;2023-04-12T06:50:40;9.10;65.50
20492;DHT22;10404;51.468;6.762;2023-04-12T06:53:05;9.00;65.70
20492;DHT22;10404;51.468;6.762;2023-04-12T06:55:31;9.00;65.70
20492;DHT22;10404;51.468;6.762;2023-04-12T06:57:56;9.10;65.70
20492;DHT22;10404;51.468;6.762;2023-04-12T07:00:22;9.00;66.00
20492;DHT22;10404;51.468;6.762;2023-04-12T07:02:48;9.10;66.10
20492;DHT22;10404;51.468;6.762;2023-04-12T07:05:14;9.10;66.00
20492;DHT22;10404;51.468;6.762;2023-04-12T07:07:40;9.10;66.10
20492;DHT22;10404;51.468;6.762;2023-04-12T07:10:06;9.10;66.10
20492;DHT22;10404;51.468;6.762;2023-04-12T07:12:32;9.00;66.10
20492;DHT22;10404;51.468;6.762;2023-04-12T07:14:58;9.10;66.00
20492;DHT22;10404;51.468;6.762;2023-04-12T07:17:23;9.10;66.30
20492;DHT22;10404;51.468;6.762;2023-04-12T07:19:52;9.00;66.30
20492;DHT22;10404;51.468;6.762;2023-04-12T07:22:18;9.00;66.30
20492;DHT22;10404;51.468;6.762;2023-04-12T07:24:44;9.10;66.20
20492;DHT22;10404;51.468;6.762;2023-04-12T07:27:09;9.10;66.20
20492;DHT22;10404;51.468;6.762;2023-04-12T07:29:35;9.10;66.10
20492;DHT22;10404;51.468;6.762;2023-04-12T07:32:02;9.10;66.10
20492;DHT22;10404;51.468;6.762;2023-04-12T07:34:27;9.10;66.20
20492;DHT22;10404;51.468;6.762;2023-04-12T07:36:53;9.10;66.10
20492;DHT22;10404;51.468;6.762;2023-04-12T07:39:19;9.20;66.00
20492;DHT22;10404;51.468;6.762;2023-04-12T07:41:44;9.20;66.00
20492;DHT22;10404;51.468;6.762;2023-04-12T07:44:10;9.20;66.00
20492;DHT22;10404;51.468;6.762;2023-04-12T07:46:37;9.20;66.10
20492;DHT22;10404;51.468;6.762;2023-04-12T07:49:03;9.20;66.20
20492;DHT22;10404;51.468;6.762;2023-04-12T07:51:28;9.20;66.30
20492;DHT22;10404;51.468;6.762;2023-04-12T07:53:54;9.20;66.30
20492;DHT22;10404;51.468;6.762;2023-04-12T07:56:19;9.20;66.30
20492;DHT22;10404;51.468;6.762;2023-04-12T07:58:45;9.20;66.50
20492;DHT22;10404;51.468;6.762;2023-04-12T08:01:11;9.20;66.60
20492;DHT22;10404;51.468;6.762;2023-04-12T08:03:37;9.20;66.60
20492;DHT22;10404;51.468;6.762;2023-04-12T08:06:03;9.20;66.80
20492;DHT22;10404;51.468;6.762;2023-04-12T08:08:29;9.20;66.90
20492;DHT22;10404;51.468;6.762;2023-04-12T08:10:55;9.20;67.00
20492;DHT22;10404;51.468;6.762;2023-04-12T08:13:20;9.20;67.00
20492;DHT22;10404;51.468;6.762;2023-04-12T08:15:46;9.20;67.00
20492;DHT22;10404;51.468;6.762;2023-04-12T08:18:12;9.20;67.00
20492;DHT22;10404;51.468;6.762;2023-04-12T08:20:38;9.20;67.00
20492;DHT22;10404;51.468;6.762;2023-04-12T08:23:05;9.20;67.00
20492;DHT22;10404;51.468;6.762;2023-04-12T08:25:31;9.20;67.00
20492;DHT22;10404;51.468;6.762;2023-04-12T08:27:56;9.20;67.10
20492;DHT22;10404;51.468;6.762;2023-04-12T08:30:22;9.30;67.10
20492;DHT22;10404;51.468;6.762;2023-04-12T08:32:54;9.30;67.10
20492;DHT22;10404;51.468;6.762;2023-04-12T08:35:20;9.30;67.00
20492;DHT22;10404;51.468;6.762;2023-04-12T08:37:45;9.30;67.00
20492;DHT22;10404;51.468;6.762;2023-04-12T08:40:11;9.30;66.90
20492;DHT22;10404;51.468;6.762;2023-04-12T08:42:37;9.40;66.90
20492;DHT22;10404;51.468;6.762;2023-04-12T08:45:07;9.40;67.00
20492;DHT22;10404;51.468;6.762;2023-04-12T08:47:42;9.40;67.00
20492;DHT22;10404;51.468;6.762;2023-04-12T08:50:09;9.40;67.10
20492;DHT22;10404;51.468;6.762;2023-04-12T08:52:38;9.40;67.20
20492;DHT22;10404;51.468;6.762;2023-04-12T08:55:05;9.40;67.20
20492;DHT22;10404;51.468;6.762;2023-04-12T08:57:31;9.40;67.20
20492;DHT22;10404;51.468;6.762;2023-04-12T08:59:59;9.40;67.20
20492;DHT22;10404;51.468;6.762;2023-04-12T09:02:26;9.40;67.20
20492;DHT22;10404;51.468;6.762;2023-04-12T09:04:52;9.40;67.10
20492;DHT22;10404;51.468;6.762;2023-04-12T09:07:18;9.40;67.20
20492;DHT22;10404;51.468;6.762;2023-04-12T09:09:47;9.40;67.20
20492;DHT22;10404;51.468;6.762;2023-04-12T09:12:13;9.50;67.20
20492;DHT22;10404;51.468;6.762;2023-04-12T09:14:40;9.50;67.20
20492;DHT22;10404;51.468;6.762;2023-04-12T09:17:26;9.50;67.20
20492;DHT22;10404;51.468;6.762;2023-04-12T09:19:52;9.50;67.20
20492;DHT22;10404;51.468;6.762;2023-04-12T09:22:32;9.50;67.40
20492;DHT22;10404;51.468;6.762;2023-04-12T09:24:57;9.50;67.40
20492;DHT22;10404;51.468;6.762;2023-04-12T09:27:23;9.50;67.40
20492;DHT22;10404;51.468;6.762;2023-04-12T09:29:49;9.50;67.60
20492;DHT22;10404;51.468;6.762;2023-04-12T09:32:25;9.50;67.60
20492;DHT22;10404;51.468;6.762;2023-04-12T09:34:56;9.60;67.60
20492;DHT22;10404;51.468;6.762;2023-04-12T09:37:22;9.60;67.50
20492;DHT22;10404;51.468;6.762;2023-04-12T09:39:58;9.60;67.50
20492;DHT22;10404;51.468;6.762;2023-04-12T09:42:25;9.60;67.30
20492;DHT22;10404;51.468;6.762;2023-04-12T09:44:52;9.60;67.20
20492;DHT22;10404;51.468;6.762;2023-04-12T09:47:18;9.60;67.20
20492;DHT22;10404;51.468;6.762;2023-04-12T09:49:44;9.60;67.20
20492;DHT22;10404;51.468;6.762;2023-04-12T09:52:11;9.60;67.20
20492;DHT22;10404;51.468;6.762;2023-04-12T09:54:44;9.60;67.10
20492;DHT22;10404;51.468;6.762;2023-04-12T09:57:11;9.60;67.20
20492;DHT22;10404;51.468;6.762;2023-04-12T09:59:40;9.60;67.20
20492;DHT22;10404;51.468;6.762;2023-04-12T10:02:17;9.60;67.30
20492;DHT22;10404;51.468;6.762;2023-04-12T10:04:43;9.60;67.40
20492;DHT22;10404;51.468;6.762;2023-04-12T10:07:10;9.60;67.40
20492;DHT22;10404;51.468;6.762;2023-04-12T10:09:37;9.70;68.00
20492;DHT22;10404;51.468;6.762;2023-04-12T10:12:03;9.70;68.60
20492;DHT22;10404;51.468;6.762;2023-04-12T10:14:30;9.70;68.90
20492;DHT22;10404;51.468;6.762;2023-04-12T10:16:57;9.70;69.30
20492;DHT22;10404;51.468;6.762;2023-04-12T10:19:25;9.70;69.90
20492;DHT22;10404;51.468;6.762;2023-04-12T10:21:51;9.80;70.20
20492;DHT22;10404;51.468;6.762;2023-04-12T10:24:20;9.80;70.40
20492;DHT22;10404;51.468;6.762;2023-04-12T10:26:46;9.90;70.50
20492;DHT22;10404;51.468;6.762;2023-04-12T10:29:28;10.00;70.80
20492;DHT22;10404;51.468;6.762;2023-04-12T10:31:57;10.00;70.90
20492;DHT22;10404;51.468;6.762;2023-04-12T10:34:25;10.10;71.10
20492;DHT22;10404;51.468;6.762;2023-04-12T10:36:57;10.40;71.00
20492;DHT22;10404;51.468;6.762;2023-04-12T10:39:38;10.50;70.70
20492;DHT22;10404;51.468;6.762;2023-04-12T10:42:27;10.60;70.50
20492;DHT22;10404;51.468;6.762;2023-04-12T10:50:32;10.60;69.90
20492;DHT22;10404;51.468;6.762;2023-04-12T10:55:40;10.60;69.90
20492;DHT22;10404;51.468;6.762;2023-04-12T10:58:07;10.60;69.80
20492;DHT22;10404;51.468;6.762;2023-04-12T11:03:25;10.60;70.00
20492;DHT22;10404;51.468;6.762;2023-04-12T11:06:01;10.60;70.00
20492;DHT22;10404;51.468;6.762;2023-04-12T11:08:28;10.60;69.90
20492;DHT22;10404;51.468;6.762;2023-04-12T11:11:18;10.60;69.70
20492;DHT22;10404;51.468;6.762;2023-04-12T11:13:44;10.60;69.70
20492;DHT22;10404;51.468;6.762;2023-04-12T11:16:10;10.60;69.60
20492;DHT22;10404;51.468;6.762;2023-04-12T11:18:37;10.60;69.50
20492;DHT22;10404;51.468;6.762;2023-04-12T11:21:04;10.60;69.50
20492;DHT22;10404;51.468;6.762;2023-04-12T11:23:32;10.60;69.50
20492;DHT22;10404;51.468;6.762;2023-04-12T11:26:02;10.60;69.50
20492;DHT22;10404;51.468;6.762;2023-04-12T11:28:28;10.60;69.50
20492;DHT22;10404;51.468;6.762;2023-04-12T11:30:54;10.60;69.50
20492;DHT22;10404;51.468;6.762;2023-04-12T11:33:37;10.70;69.50
20492;DHT22;10404;51.468;6.762;2023-04-12T11:36:07;10.70;69.40
20492;DHT22;10404;51.468;6.762;2023-04-12T11:38:34;10.80;69.40
20492;DHT22;10404;51.468;6.762;2023-04-12T11:41:01;10.80;69.40
20492;DHT22;10404;51.468;6.762;2023-04-12T11:43:27;10.80;69.40
20492;DHT22;10404;51.468;6.762;2023-04-12T11:45:59;10.80;69.20
20492;DHT22;10404;51.468;6.762;2023-04-12T11:48:26;10.90;69.20
20492;DHT22;10404;51.468;6.762;2023-04-12T11:50:52;10.90;69.20
20492;DHT22;10404;51.468;6.762;2023-04-12T11:53:18;10.90;69.20
20492;DHT22;10404;51.468;6.762;2023-04-12T11:55:50;11.00;69.10
20492;DHT22;10404;51.468;6.762;2023-04-12T11:58:22;11.00;69.10
20492;DHT22;10404;51.468;6.762;2023-04-12T12:00:48;11.10;69.10
20492;DHT22;10404;51.468;6.762;2023-04-12T12:03:13;11.10;69.10
20492;DHT22;10404;51.468;6.762;2023-04-12T12:05:40;11.20;69.10
20492;DHT22;10404;51.468;6.762;2023-04-12T12:08:09;11.30;69.10
20492;DHT22;10404;51.468;6.762;2023-04-12T12:10:36;11.30;69.00
20492;DHT22;10404;51.468;6.762;2023-04-12T12:13:02;11.40;68.80
20492;DHT22;10404;51.468;6.762;2023-04-12T12:15:30;11.50;68.80
20492;DHT22;10404;51.468;6.762;2023-04-12T12:17:56;11.50;68.80
20492;DHT22;10404;51.468;6.762;2023-04-12T12:20:22;11.50;68.70
20492;DHT22;10404;51.468;6.762;2023-04-12T12:22:49;11.60;68.50
20492;DHT22;10404;51.468;6.762;2023-04-12T12:25:17;11.70;68.50
20492;DHT22;10404;51.468;6.762;2023-04-12T12:27:43;11.70;68.50
20492;DHT22;10404;51.468;6.762;2023-04-12T12:30:16;11.90;68.40
20492;DHT22;10404;51.468;6.762;2023-04-12T12:32:42;11.90;68.40
20492;DHT22;10404;51.468;6.762;2023-04-12T12:35:09;12.00;68.20
20492;DHT22;10404;51.468;6.762;2023-04-12T12:37:35;12.00;68.10
20492;DHT22;10404;51.468;6.762;2023-04-12T12:40:11;12.10;68.00
20492;DHT22;10404;51.468;6.762;2023-04-12T12:42:45;12.10;68.00
20492;DHT22;10404;51.468;6.762;2023-04-12T12:45:12;12.20;68.00
20492;DHT22;10404;51.468;6.762;2023-04-12T12:47:52;12.30;67.90
20492;DHT22;10404;51.468;6.762;2023-04-12T12:50:21;12.40;68.00
20492;DHT22;10404;51.468;6.762;2023-04-12T12:52:47;12.50;67.80
20492;DHT22;10404;51.468;6.762;2023-04-12T12:55:16;12.50;67.60
20492;DHT22;10404;51.468;6.762;2023-04-12T12:57:43;12.60;67.50
20492;DHT22;10404;51.468;6.762;2023-04-12T13:00:11;12.70;67.30
20492;DHT22;10404;51.468;6.762;2023-04-12T13:02:38;12.70;67.30
20492;DHT22;10404;51.468;6.762;2023-04-12T13:05:04;12.80;67.10
20492;DHT22;10404;51.468;6.762;2023-04-12T13:07:30;12.90;66.90
20492;DHT22;10404;51.468;6.762;2023-04-12T13:09:56;13.00;67.10
20492;DHT22;10404;51.468;6.762;2023-04-12T13:12:21;13.10;67.10
20492;DHT22;10404;51.468;6.762;2023-04-12T13:14:47;13.10;67.00
20492;DHT22;10404;51.468;6.762;2023-04-12T13:17:14;13.20;66.90
20492;DHT22;10404;51.468;6.762;2023-04-12T13:19:39;13.30;66.80
20492;DHT22;10404;51.468;6.762;2023-04-12T13:22:05;13.40;66.60
20492;DHT22;10404;51.468;6.762;2023-04-12T13:24:35;13.50;66.40
20492;DHT22;10404;51.468;6.762;2023-04-12T13:27:01;13.60;66.10
20492;DHT22;10404;51.468;6.762;2023-04-12T13:29:27;13.60;66.00
20492;DHT22;10404;51.468;6.762;2023-04-12T13:31:53;13.80;66.00
20492;DHT22;10404;51.468;6.762;2023-04-12T13:34:19;13.90;65.80
20492;DHT22;10404;51.468;6.762;2023-04-12T13:36:45;14.00;65.50
20492;DHT22;10404;51.468;6.762;2023-04-12T13:39:10;14.00;65.10
20492;DHT22;10404;51.468;6.762;2023-04-12T13:41:36;14.10;64.70
20492;DHT22;10404;51.468;6.762;2023-04-12T13:44:02;14.20;64.30
20492;DHT22;10404;51.468;6.762;2023-04-12T13:46:29;14.20;64.00
20492;DHT22;10404;51.468;6.762;2023-04-12T13:48:55;14.30;63.60
20492;DHT22;10404;51.468;6.762;2023-04-12T13:51:20;14.30;63.50
20492;DHT22;10404;51.468;6.762;2023-04-12T13:53:46;14.30;63.40
20492;DHT22;10404;51.468;6.762;2023-04-12T13:56:12;14.30;63.50
20492;DHT22;10404;51.468;6.762;2023-04-12T13:58:37;14.30;63.40
20492;DHT22;10404;51.468;6.762;2023-04-12T14:01:05;14.30;63.40
20492;DHT22;10404;51.468;6.762;2023-04-12T14:03:31;14.30;63.40
20492;DHT22;10404;51.468;6.762;2023-04-12T14:05:56;14.30;63.50
20492;DHT22;10404;51.468;6.762;2023-04-12T14:08:22;14.30;63.40
20492;DHT22;10404;51.468;6.762;2023-04-12T14:10:48;14.30;63.80
20492;DHT22;10404;51.468;6.762;2023-04-12T14:13:14;14.30;64.00
20492;DHT22;10404;51.468;6.762;2023-04-12T14:15:40;14.30;64.00
20492;DHT22;10404;51.468;6.762;2023-04-12T14:18:05;14.30;64.00
20492;DHT22;10404;51.468;6.762;2023-04-12T14:20:31;14.20;63.90
20492;DHT22;10404;51.468;6.762;2023-04-12T14:22:56;14.20;63.90
20492;DHT22;10404;51.468;6.762;2023-04-12T14:25:22;14.20;63.60
20492;DHT22;10404;51.468;6.762;2023-04-12T14:27:48;14.20;63.60
20492;DHT22;10404;51.468;6.762;2023-04-12T14:30:13;14.10;63.70
20492;DHT22;10404;51.468;6.762;2023-04-12T14:32:39;14.10;63.70
20492;DHT22;10404;51.468;6.762;2023-04-12T14:35:05;14.10;63.70
20492;DHT22;10404;51.468;6.762;2023-04-12T14:37:31;14.10;63.60
20492;DHT22;10404;51.468;6.762;2023-04-12T14:39:57;14.00;63.60
20492;DHT22;10404;51.468;6.762;2023-04-12T14:42:23;14.00;63.60
20492;DHT22;10404;51.468;6.762;2023-04-12T14:44:48;14.00;63.60
20492;DHT22;10404;51.468;6.762;2023-04-12T14:47:14;14.00;63.70
20492;DHT22;10404;51.468;6.762;2023-04-12T14:49:39;13.90;63.80
20492;DHT22;10404;51.468;6.762;2023-04-12T14:52:05;13.90;63.80
20492;DHT22;10404;51.468;6.762;2023-04-12T14:54:31;13.90;63.70
20492;DHT22;10404;51.468;6.762;2023-04-12T14:56:57;13.90;63.80
20492;DHT22;10404;51.468;6.762;2023-04-12T14:59:22;13.90;63.70
20492;DHT22;10404;51.468;6.762;2023-04-12T15:01:48;13.80;63.80
20492;DHT22;10404;51.468;6.762;2023-04-12T15:04:13;13.70;63.70
20492;DHT22;10404;51.468;6.762;2023-04-12T15:06:39;13.70;63.70
20492;DHT22;10404;51.468;6.762;2023-04-12T15:09:07;13.70;63.70
20492;DHT22;10404;51.468;6.762;2023-04-12T15:11:34;13.60;63.70
20492;DHT22;10404;51.468;6.762;2023-04-12T15:14:00;13.60;63.70
20492;DHT22;10404;51.468;6.762;2023-04-12T15:16:30;13.60;63.80
20492;DHT22;10404;51.468;6.762;2023-04-12T15:18:55;13.50;63.20
20492;DHT22;10404;51.468;6.762;2023-04-12T15:21:21;13.50;63.20
20492;DHT22;10404;51.468;6.762;2023-04-12T15:23:47;13.40;63.40
20492;DHT22;10404;51.468;6.762;2023-04-12T15:26:13;13.30;63.70
20492;DHT22;10404;51.468;6.762;2023-04-12T15:28:40;13.30;63.60
20492;DHT22;10404;51.468;6.762;2023-04-12T15:31:06;13.30;63.70
20492;DHT22;10404;51.468;6.762;2023-04-12T15:33:32;13.30;63.70
20492;DHT22;10404;51.468;6.762;2023-04-12T15:36:03;13.30;63.60
20492;DHT22;10404;51.468;6.762;2023-04-12T15:38:29;13.30;63.60
20492;DHT22;10404;51.468;6.762;2023-04-12T15:40:56;13.30;63.60
20492;DHT22;10404;51.468;6.762;2023-04-12T15:43:23;13.30;63.60
20492;DHT22;10404;51.468;6.762;2023-04-12T15:45:50;13.20;63.70
20492;DHT22;10404;51.468;6.762;2023-04-12T15:48:21;13.20;63.50
20492;DHT22;10404;51.468;6.762;2023-04-12T15:50:47;13.20;63.60
20492;DHT22;10404;51.468;6.762;2023-04-12T15:53:18;13.10;63.50
20492;DHT22;10404;51.468;6.762;2023-04-12T15:55:45;13.10;63.40
20492;DHT22;10404;51.468;6.762;2023-04-12T15:58:11;13.10;63.40
20492;DHT22;10404;51.468;6.762;2023-04-12T16:00:38;13.10;63.50
20492;DHT22;10404;51.468;6.762;2023-04-12T16:03:03;13.10;63.40
20492;DHT22;10404;51.468;6.762;2023-04-12T16:05:29;13.10;63.30